createdAt,value
2018-12-23T00:02:10.158Z,3.73
2018-12-23T00:04:37.721Z,3.40
2018-12-23T00:07:05.284Z,3.00
2018-12-23T00:09:35.817Z,4.03
2018-12-23T00:12:03.385Z,3.20
2018-12-23T00:14:30.952Z,3.73
2018-12-23T00:16:59.258Z,3.83
2018-12-23T00:19:26.839Z,3.67
2018-12-23T00:21:54.708Z,3.43
2018-12-23T00:24:22.264Z,3.40
2018-12-23T00:26:49.837Z,3.83
2018-12-23T00:29:17.416Z,4.00
2018-12-23T00:31:47.475Z,4.37
2018-12-23T00:34:15.066Z,3.93
2018-12-23T00:36:42.648Z,4.30
2018-12-23T00:39:10.211Z,5.07
2018-12-23T00:41:42.729Z,4.67
2018-12-23T00:44:11.242Z,5.30
2018-12-23T00:46:39.294Z,5.60
2018-12-23T00:49:07.094Z,6.30
2018-12-23T00:51:34.986Z,6.67
2018-12-23T00:54:02.607Z,6.40
2018-12-23T00:56:30.195Z,6.70
2018-12-23T00:58:58.058Z,7.33
2018-12-23T01:01:27.618Z,7.27
2018-12-23T01:03:55.228Z,7.40
2018-12-23T01:06:22.840Z,7.17
2018-12-23T01:08:50.612Z,7.27
2018-12-23T01:11:18.211Z,6.37
2018-12-23T01:13:45.827Z,6.87
2018-12-23T01:16:13.389Z,6.97
2018-12-23T01:18:41.176Z,7.93
2018-12-23T01:21:09.863Z,7.70
2018-12-23T01:23:37.536Z,7.53
2018-12-23T01:26:05.224Z,6.27
2018-12-23T01:28:32.818Z,6.83
2018-12-23T01:31:00.372Z,6.50
2018-12-23T01:33:27.956Z,6.63
2018-12-23T01:35:55.723Z,6.80
2018-12-23T01:38:23.302Z,6.37
2018-12-23T01:40:50.894Z,6.53
2018-12-23T01:43:19.859Z,6.10
2018-12-23T01:45:47.432Z,6.13
2018-12-23T01:48:16.968Z,6.40
2018-12-23T01:50:44.656Z,5.10
2018-12-23T01:53:12.821Z,5.37
2018-12-23T01:55:40.406Z,4.17
2018-12-23T01:58:08.050Z,5.00
2018-12-23T02:00:35.973Z,4.90
2018-12-23T02:03:03.553Z,5.50
2018-12-23T02:05:31.139Z,5.70
2018-12-23T02:07:58.838Z,5.60
2018-12-23T02:10:26.472Z,5.30
2018-12-23T02:12:54.148Z,5.63
2018-12-23T02:15:22.212Z,5.30
2018-12-23T02:17:49.976Z,4.83
2018-12-23T02:20:17.549Z,5.37
2018-12-23T02:22:45.123Z,5.17
2018-12-23T02:25:17.332Z,4.50
2018-12-23T02:27:45.240Z,4.80
2018-12-23T02:30:12.919Z,4.47
2018-12-23T02:32:40.474Z,4.57
2018-12-23T02:35:08.280Z,4.83
2018-12-23T02:37:37.392Z,4.80
2018-12-23T02:40:05.597Z,4.07
2018-12-23T02:42:33.165Z,4.10
2018-12-23T02:45:00.737Z,4.20
2018-12-23T02:47:28.809Z,3.83
2018-12-23T02:49:56.377Z,4.67
2018-12-23T02:52:23.949Z,4.27
2018-12-23T02:54:55.963Z,3.97
2018-12-23T02:57:23.531Z,4.20
2018-12-23T02:59:51.112Z,5.37
2018-12-23T03:02:18.690Z,4.53
2018-12-23T03:04:46.644Z,5.07
2018-12-23T03:07:14.210Z,5.53
2018-12-23T03:09:41.775Z,5.10
2018-12-23T03:12:09.340Z,5.03
2018-12-23T03:14:37.634Z,4.83
2018-12-23T03:17:05.192Z,5.97
2018-12-23T03:19:32.989Z,5.27
2018-12-23T03:22:00.569Z,5.37
2018-12-23T03:24:28.302Z,5.27
2018-12-23T03:26:56.230Z,5.20
2018-12-23T03:29:24.254Z,5.90
2018-12-23T03:31:52.148Z,6.20
2018-12-23T03:34:19.803Z,5.90
2018-12-23T03:36:47.377Z,6.67
2018-12-23T03:39:14.941Z,6.83
2018-12-23T03:41:42.720Z,5.87
2018-12-23T03:44:10.303Z,7.23
2018-12-23T03:46:37.889Z,6.93
2018-12-23T03:49:07.998Z,7.03
2018-12-23T03:51:35.790Z,6.80
2018-12-23T03:54:03.532Z,6.43
2018-12-23T03:56:32.421Z,6.00
2018-12-23T03:59:01.360Z,6.40
2018-12-23T04:01:28.932Z,5.37
2018-12-23T04:03:56.733Z,5.43
2018-12-23T04:06:24.957Z,4.90
2018-12-23T04:08:52.895Z,5.53
2018-12-23T04:11:20.457Z,5.47
2018-12-23T04:13:48.026Z,4.60
2018-12-23T04:16:16.213Z,5.23
2018-12-23T04:18:43.784Z,5.47
2018-12-23T04:21:11.352Z,4.43
2018-12-23T04:23:38.912Z,4.37
2018-12-23T04:26:06.476Z,4.60
2018-12-23T04:28:34.033Z,4.57
2018-12-23T04:31:01.662Z,4.70
2018-12-23T04:33:30.762Z,3.90
2018-12-23T04:35:58.333Z,4.10
2018-12-23T04:38:25.903Z,3.67
2018-12-23T04:40:53.478Z,4.60
2018-12-23T04:43:21.078Z,4.43
2018-12-23T04:45:48.753Z,4.30
2018-12-23T04:48:16.316Z,4.50
2018-12-23T04:50:44.028Z,3.80
2018-12-23T04:53:11.582Z,3.90
2018-12-23T04:55:39.415Z,4.27
2018-12-23T04:58:07.655Z,3.90
2018-12-23T05:00:35.223Z,3.80
2018-12-23T05:03:03.704Z,4.23
2018-12-23T05:05:31.257Z,3.93
2018-12-23T05:07:58.832Z,4.27
2018-12-23T05:10:26.402Z,4.40
2018-12-23T05:12:53.981Z,4.13
2018-12-23T05:15:21.534Z,3.40
2018-12-23T05:17:49.088Z,3.07
2018-12-23T05:20:16.649Z,4.37
2018-12-23T05:22:44.204Z,3.10
2018-12-23T05:25:12.077Z,2.90
2018-12-23T05:27:39.674Z,3.37
2018-12-23T05:30:07.616Z,3.57
2018-12-23T05:32:35.156Z,3.43
2018-12-23T05:35:03.646Z,3.07
2018-12-23T05:37:32.227Z,3.50
2018-12-23T05:39:59.788Z,3.23
2018-12-23T05:42:27.378Z,3.10
2018-12-23T05:44:54.983Z,3.03
2018-12-23T05:47:23.185Z,3.60
2018-12-23T05:49:50.749Z,3.20
2018-12-23T05:52:18.309Z,2.83
2018-12-23T05:54:46.030Z,2.87
2018-12-23T05:57:13.593Z,3.33
2018-12-23T05:59:41.147Z,3.63
2018-12-23T06:02:08.694Z,3.20
2018-12-23T06:04:36.272Z,3.40
2018-12-23T06:07:03.845Z,3.87
2018-12-23T06:09:31.695Z,3.03
2018-12-23T06:11:59.377Z,3.20
2018-12-23T06:14:26.955Z,3.20
2018-12-23T06:16:54.524Z,3.27
2018-12-23T06:19:29.024Z,3.20
2018-12-23T06:21:56.569Z,3.57
2018-12-23T06:24:24.116Z,3.07
2018-12-23T06:26:51.684Z,3.00
2018-12-23T06:29:19.241Z,3.37
2018-12-23T06:31:46.813Z,3.00
2018-12-23T06:34:14.384Z,2.80
2018-12-23T06:36:41.937Z,2.77
2018-12-23T06:39:09.482Z,3.63
2018-12-23T06:41:37.052Z,3.40
2018-12-23T06:44:04.615Z,3.67
2018-12-23T06:46:32.191Z,3.70
2018-12-23T06:48:59.745Z,3.80
2018-12-23T06:51:27.307Z,3.77
2018-12-23T06:53:54.894Z,3.73
2018-12-23T06:56:22.481Z,3.60
2018-12-23T06:58:50.048Z,3.43
2018-12-23T07:01:17.609Z,4.17
2018-12-23T07:03:46.141Z,3.70
2018-12-23T07:06:13.705Z,4.10
2018-12-23T07:08:41.258Z,3.93
2018-12-23T07:11:09.234Z,3.90
2018-12-23T07:13:38.678Z,3.70
2018-12-23T07:16:06.234Z,3.80
2018-12-23T07:18:34.008Z,4.07
2018-12-23T07:21:01.577Z,3.70
2018-12-23T07:23:29.148Z,4.10
2018-12-23T07:25:56.721Z,5.07
2018-12-23T07:28:24.291Z,3.70
2018-12-23T07:30:51.857Z,4.63
2018-12-23T07:33:19.440Z,4.17
2018-12-23T07:35:46.993Z,4.60
2018-12-23T07:38:14.777Z,4.83
2018-12-23T07:40:42.355Z,4.47
2018-12-23T07:43:10.009Z,4.83
2018-12-23T07:45:37.803Z,4.63
2018-12-23T07:48:05.377Z,6.37
2018-12-23T07:50:32.937Z,4.67
2018-12-23T07:53:00.498Z,5.73
2018-12-23T07:55:28.058Z,5.50
2018-12-23T07:57:55.632Z,5.07
2018-12-23T08:00:23.199Z,5.47
2018-12-23T08:02:53.845Z,5.80
2018-12-23T08:05:21.631Z,6.13
2018-12-23T08:07:49.993Z,6.47
2018-12-23T08:10:17.582Z,6.20
2018-12-23T08:12:45.136Z,6.73
2018-12-23T08:15:12.700Z,7.07
2018-12-23T08:17:40.264Z,5.63
2018-12-23T08:20:08.461Z,5.80
2018-12-23T08:22:36.018Z,5.87
2018-12-23T08:25:03.695Z,6.07
2018-12-23T08:27:31.260Z,6.30
2018-12-23T08:29:58.889Z,6.10
2018-12-23T08:32:27.954Z,6.17
2018-12-23T08:34:55.510Z,5.73
2018-12-23T08:37:23.114Z,6.07
2018-12-23T08:39:52.071Z,6.47
2018-12-23T08:42:20.682Z,7.10
2018-12-23T08:44:48.250Z,6.03
2018-12-23T08:47:15.816Z,6.33
2018-12-23T08:49:43.401Z,6.57
2018-12-23T08:52:10.967Z,6.60
2018-12-23T08:54:38.536Z,6.83
2018-12-23T08:57:06.729Z,6.70
2018-12-23T08:59:34.288Z,6.37
2018-12-23T09:02:03.185Z,6.13
2018-12-23T09:04:31.059Z,6.43
2018-12-23T09:06:59.256Z,6.20
2018-12-23T09:09:26.843Z,6.03
2018-12-23T09:11:55.174Z,6.80
2018-12-23T09:14:23.743Z,6.13
2018-12-23T09:16:51.308Z,5.50
2018-12-23T09:19:19.152Z,5.40
2018-12-23T09:21:47.566Z,5.37
2018-12-23T09:24:15.327Z,6.23
2018-12-23T09:26:42.905Z,6.13
2018-12-23T09:29:10.501Z,6.30
2018-12-23T09:31:38.281Z,6.57
2018-12-23T09:34:05.838Z,5.87
2018-12-23T09:36:33.402Z,6.47
2018-12-23T09:39:01.266Z,6.40
2018-12-23T09:41:28.949Z,5.90
2018-12-23T09:43:57.417Z,6.10
2018-12-23T09:46:25.064Z,6.60
2018-12-23T09:48:53.464Z,6.73
2018-12-23T09:51:21.018Z,7.77
2018-12-23T09:53:48.583Z,6.90
2018-12-23T09:56:16.345Z,6.50
2018-12-23T09:58:44.057Z,7.13
2018-12-23T10:01:11.621Z,6.20
2018-12-23T10:03:39.183Z,7.13
2018-12-23T10:06:07.985Z,6.40
2018-12-23T10:08:36.308Z,7.13
2018-12-23T10:11:04.355Z,6.47
2018-12-23T10:13:32.121Z,6.00
2018-12-23T10:15:59.690Z,6.70
2018-12-23T10:18:27.248Z,6.03
2018-12-23T10:20:55.220Z,6.80
2018-12-23T10:23:23.047Z,7.17
2018-12-23T10:25:50.608Z,5.93
2018-12-23T10:28:18.166Z,6.40
2018-12-23T10:30:45.922Z,6.07
2018-12-23T10:33:13.476Z,6.80
2018-12-23T10:35:41.061Z,5.63
2018-12-23T10:38:09.690Z,6.50
2018-12-23T10:40:37.252Z,5.97
2018-12-23T10:43:04.918Z,6.70
2018-12-23T10:45:32.501Z,5.83
2018-12-23T10:48:00.051Z,6.07
2018-12-23T10:50:27.615Z,6.03
2018-12-23T10:54:00.641Z,6.43
2018-12-23T10:56:39.813Z,6.17
2018-12-23T10:59:20.487Z,6.23
2018-12-23T11:02:01.549Z,5.37
2018-12-23T11:04:42.817Z,6.40
2018-12-23T11:07:24.155Z,6.40
2018-12-23T11:10:04.943Z,7.07
2018-12-23T11:12:46.250Z,6.27
2018-12-23T11:15:30.583Z,6.63
2018-12-23T11:20:57.814Z,6.80
2018-12-23T11:23:39.222Z,6.43
2018-12-23T11:26:19.838Z,7.20
2018-12-23T11:29:05.206Z,6.00
2018-12-23T11:31:43.569Z,6.47
2018-12-23T11:34:26.591Z,6.30
2018-12-23T11:37:07.757Z,5.87
2018-12-23T11:39:49.168Z,5.83
2018-12-23T11:42:30.401Z,6.67
2018-12-23T11:45:10.866Z,5.97
2018-12-23T11:47:51.436Z,6.50
2018-12-23T11:50:31.955Z,6.03
2018-12-23T11:53:12.574Z,8.10
2018-12-23T11:55:53.945Z,6.03
2018-12-23T11:58:35.051Z,7.20
2018-12-23T12:04:08.723Z,6.17
2018-12-23T12:06:49.689Z,6.10
2018-12-23T12:09:30.344Z,5.87
2018-12-23T12:12:11.875Z,5.70
2018-12-23T12:14:53.058Z,6.17
2018-12-23T12:17:33.871Z,6.93
2018-12-23T12:20:14.635Z,5.80
2018-12-23T12:22:59.166Z,5.17
2018-12-23T12:25:40.310Z,5.67
2018-12-23T12:28:22.707Z,6.50
2018-12-23T12:31:04.157Z,6.57
2018-12-23T12:33:48.196Z,7.40
2018-12-23T12:36:29.198Z,5.90
2018-12-23T12:39:14.144Z,6.23
2018-12-23T12:41:54.175Z,5.90
2018-12-23T12:44:35.249Z,5.97
2018-12-23T12:47:15.992Z,6.30
2018-12-23T12:49:56.501Z,5.33
2018-12-23T12:52:39.253Z,5.97
2018-12-23T12:55:19.952Z,6.63
2018-12-23T12:58:01.138Z,6.63
2018-12-23T13:00:42.361Z,6.20
2018-12-23T13:03:23.563Z,7.40
2018-12-23T13:06:04.801Z,6.40
2018-12-23T13:08:46.199Z,6.57
2018-12-23T13:14:18.988Z,5.20
2018-12-23T13:16:59.718Z,5.87
2018-12-23T13:19:41.517Z,7.23
2018-12-23T13:22:23.161Z,4.40
2018-12-23T13:25:04.133Z,4.37
2018-12-23T13:27:45.350Z,3.83
2018-12-23T13:30:26.177Z,3.73
2018-12-23T13:33:06.983Z,4.17
2018-12-23T13:35:50.550Z,5.00
2018-12-23T13:38:31.939Z,3.80
2018-12-23T13:41:13.357Z,3.93
2018-12-23T13:43:56.167Z,3.80
2018-12-23T13:46:37.208Z,4.20
2018-12-23T13:49:18.255Z,4.97
2018-12-23T13:51:59.162Z,7.10
2018-12-23T13:54:40.321Z,5.27
2018-12-23T13:57:25.430Z,9.57
2018-12-23T14:00:06.313Z,5.80
2018-12-23T14:02:49.661Z,6.67
2018-12-23T14:08:14.146Z,7.00
2018-12-23T14:10:57.831Z,4.27
2018-12-23T14:13:40.419Z,3.40
2018-12-23T14:16:21.559Z,4.37
2018-12-23T14:19:07.131Z,3.37
2018-12-23T14:21:49.073Z,4.30
2018-12-23T14:24:32.647Z,5.07
2018-12-23T14:29:57.621Z,3.47
2018-12-23T14:32:38.322Z,3.63
2018-12-23T14:35:22.289Z,3.60
2018-12-23T14:38:02.899Z,3.57
2018-12-23T14:43:39.250Z,2.57
2018-12-23T14:46:22.236Z,2.53
2018-12-23T14:49:03.266Z,2.00
2018-12-23T14:51:44.494Z,2.50
2018-12-23T14:54:25.631Z,2.07
2018-12-23T14:57:09.160Z,2.40
2018-12-23T15:02:41.800Z,2.00
2018-12-23T15:05:29.095Z,3.13
2018-12-23T15:08:08.081Z,2.53
2018-12-23T15:10:49.826Z,2.87
2018-12-23T15:13:34.726Z,3.03
2018-12-23T15:16:20.754Z,2.67
2018-12-23T15:19:02.266Z,3.10
2018-12-23T15:21:46.650Z,2.70
2018-12-23T15:24:28.041Z,2.40
2018-12-23T15:27:08.548Z,2.93
2018-12-23T15:29:49.033Z,2.63
2018-12-23T15:32:32.311Z,2.60
2018-12-23T15:35:13.665Z,2.57
2018-12-23T15:37:55.005Z,3.33
2018-12-23T15:40:35.957Z,3.23
2018-12-23T15:43:16.765Z,3.00
2018-12-23T15:46:00.661Z,3.10
2018-12-23T15:48:41.790Z,3.10
2018-12-23T15:51:22.952Z,4.30
2018-12-23T15:54:03.993Z,3.37
2018-12-23T15:56:43.360Z,3.27
2018-12-23T15:59:45.118Z,4.53
2018-12-23T16:02:13.953Z,5.33
2018-12-23T16:04:55.065Z,6.90
2018-12-23T16:07:38.957Z,7.40
2018-12-23T16:10:19.486Z,9.23
2018-12-23T16:13:00.833Z,8.97
2018-12-23T16:15:42.073Z,6.63
2018-12-23T16:18:22.632Z,6.93
2018-12-23T16:21:03.843Z,5.20
2018-12-23T16:23:45.111Z,5.33
2018-12-23T16:26:25.994Z,4.83
2018-12-23T16:29:12.681Z,5.67
2018-12-23T16:32:20.483Z,5.47
2018-12-23T16:35:01.847Z,6.07
2018-12-23T16:37:43.140Z,6.53
2018-12-23T16:40:24.389Z,6.53
2018-12-23T16:43:04.823Z,6.83
2018-12-23T16:45:47.573Z,7.03
2018-12-23T16:48:28.089Z,7.17
2018-12-23T16:51:11.798Z,6.80
2018-12-23T16:53:52.566Z,6.10
2018-12-23T16:56:34.655Z,6.70
2018-12-23T16:59:15.739Z,6.20
2018-12-23T17:01:56.430Z,6.23
2018-12-23T17:04:37.785Z,7.30
2018-12-23T17:07:19.095Z,6.60
2018-12-23T17:10:08.314Z,6.07
2018-12-23T17:12:45.448Z,7.07
2018-12-23T17:15:29.597Z,7.23
2018-12-23T17:18:10.953Z,7.40
2018-12-23T17:20:51.887Z,9.57
2018-12-23T17:23:33.060Z,8.57
2018-12-23T17:26:18.123Z,9.93
2018-12-23T17:28:56.775Z,14.60
2018-12-23T17:31:42.158Z,12.30
2018-12-23T17:34:20.959Z,10.77
2018-12-23T17:37:01.696Z,13.00
2018-12-23T17:39:48.641Z,13.53
2018-12-23T17:42:29.988Z,13.17
2018-12-23T17:45:11.011Z,10.97
2018-12-23T17:47:51.993Z,9.47
2018-12-23T17:50:33.514Z,10.33
2018-12-23T17:53:14.240Z,8.30
2018-12-23T17:55:55.601Z,10.17
2018-12-23T17:58:39.465Z,9.37
2018-12-23T18:01:20.995Z,11.73
2018-12-23T18:04:02.723Z,9.83
2018-12-23T18:06:43.955Z,7.20
2018-12-23T18:09:25.262Z,8.43
2018-12-23T18:12:05.802Z,8.00
2018-12-23T18:14:46.951Z,8.23
2018-12-23T18:17:27.429Z,8.70
2018-12-23T18:20:10.649Z,10.57
2018-12-23T18:22:51.458Z,14.17
2018-12-23T18:25:32.673Z,6.80
2018-12-23T18:28:18.056Z,6.67
2018-12-23T18:31:02.586Z,8.27
2018-12-23T18:36:32.099Z,6.70
2018-12-23T18:39:26.999Z,5.73
2018-12-23T18:41:55.465Z,6.13
2018-12-23T18:44:42.621Z,5.50
2018-12-23T18:47:26.972Z,5.47
2018-12-23T18:50:09.835Z,5.53
2018-12-23T18:52:51.085Z,6.47
2018-12-23T18:55:34.975Z,6.43
2018-12-23T18:58:15.548Z,6.17
2018-12-23T19:01:00.361Z,5.47
2018-12-23T19:03:44.443Z,7.20
2018-12-23T19:06:25.566Z,6.43
2018-12-23T19:09:09.391Z,6.10
2018-12-23T19:11:50.912Z,6.37
2018-12-23T19:14:31.809Z,5.77
2018-12-23T19:17:13.999Z,5.87
2018-12-23T19:19:55.720Z,6.27
2018-12-23T19:22:38.608Z,5.87
2018-12-23T19:25:19.544Z,6.70
2018-12-23T19:28:00.635Z,6.80
2018-12-23T19:30:41.465Z,6.97
2018-12-23T19:33:22.294Z,5.93
2018-12-23T19:36:03.058Z,7.07
2018-12-23T19:38:43.598Z,7.20
2018-12-23T19:41:24.647Z,6.53
2018-12-23T19:44:10.602Z,7.13
2018-12-23T19:46:51.437Z,6.93
2018-12-23T19:49:34.518Z,8.77
2018-12-23T19:55:08.950Z,7.40
2018-12-23T19:57:52.163Z,5.23
2018-12-23T20:00:33.179Z,5.37
2018-12-23T20:03:14.037Z,5.80
2018-12-23T20:05:57.784Z,6.10
2018-12-23T20:08:40.086Z,5.73
2018-12-23T20:11:20.798Z,4.77
2018-12-23T20:14:19.758Z,4.67
2018-12-23T20:16:50.149Z,4.33
2018-12-23T20:19:31.636Z,3.83
2018-12-23T20:22:12.957Z,3.50
2018-12-23T20:24:56.209Z,2.97
2018-12-23T20:27:40.398Z,3.50
2018-12-23T20:30:24.617Z,3.53
2018-12-23T20:33:07.445Z,4.47
2018-12-23T20:35:48.353Z,4.23
2018-12-23T20:38:29.879Z,4.00
2018-12-23T20:41:10.752Z,4.83
2018-12-23T20:43:52.216Z,4.90
2018-12-23T20:46:33.523Z,5.23
2018-12-23T20:49:14.751Z,4.90
2018-12-23T20:51:55.803Z,6.20
2018-12-23T20:54:36.975Z,7.43
2018-12-23T20:57:17.796Z,6.57
2018-12-23T20:59:58.492Z,3.93
2018-12-23T21:03:16.136Z,3.33
2018-12-23T21:05:29.847Z,3.53
2018-12-23T21:10:53.703Z,3.87
2018-12-23T21:13:34.848Z,3.67
2018-12-23T21:16:17.156Z,3.70
2018-12-23T21:19:03.169Z,3.63
2018-12-23T21:21:43.962Z,4.50
2018-12-23T21:24:29.821Z,4.40
2018-12-23T21:27:11.296Z,3.27
2018-12-23T21:29:51.796Z,2.93
2018-12-23T21:32:33.977Z,3.00
2018-12-23T21:35:16.406Z,4.10
2018-12-23T21:38:01.129Z,3.60
2018-12-23T21:40:42.383Z,3.40
2018-12-23T21:43:23.427Z,3.43
2018-12-23T21:46:04.478Z,4.03
2018-12-23T21:48:45.413Z,3.67
2018-12-23T21:51:26.573Z,3.60
2018-12-23T21:54:07.547Z,2.20
2018-12-23T21:56:48.736Z,1.70
2018-12-23T21:59:32.677Z,1.87
2018-12-23T22:02:14.146Z,1.50
2018-12-23T22:04:56.667Z,1.50
2018-12-23T22:07:40.631Z,1.87
2018-12-23T22:10:24.157Z,2.53
2018-12-23T22:13:07.757Z,2.00
2018-12-23T22:15:49.353Z,1.50
2018-12-23T22:18:33.382Z,1.70
2018-12-23T22:21:16.145Z,1.73
2018-12-23T22:23:57.366Z,1.60
2018-12-23T22:26:38.397Z,1.70
2018-12-23T22:29:18.829Z,1.40
2018-12-23T22:32:01.593Z,1.83
2018-12-23T22:34:43.168Z,1.63
2018-12-23T22:37:24.187Z,1.50
2018-12-23T22:40:06.147Z,1.20
2018-12-23T22:42:47.534Z,0.83
2018-12-23T22:45:28.685Z,0.80
2018-12-23T22:48:10.180Z,0.83
2018-12-23T22:50:51.304Z,0.80
2018-12-23T22:53:32.725Z,0.63
2018-12-23T22:56:13.854Z,0.90
2018-12-23T22:58:55.019Z,0.90
2018-12-23T23:01:39.872Z,0.73
2018-12-23T23:04:18.792Z,0.90
2018-12-23T23:06:59.478Z,1.10
2018-12-23T23:09:41.589Z,0.97
2018-12-23T23:12:22.637Z,0.87
2018-12-23T23:15:03.214Z,0.90
2018-12-23T23:17:44.421Z,0.90
2018-12-23T23:20:25.312Z,0.77
2018-12-23T23:23:24.154Z,0.70
2018-12-23T23:25:54.473Z,0.53
2018-12-23T23:28:35.301Z,0.90
2018-12-23T23:31:16.401Z,0.77
2018-12-23T23:33:56.917Z,0.83
2018-12-23T23:36:40.645Z,0.90
2018-12-23T23:39:22.747Z,0.80
2018-12-23T23:42:03.574Z,0.77
2018-12-23T23:44:44.080Z,1.10
2018-12-23T23:47:29.248Z,0.70
2018-12-23T23:50:10.308Z,0.87
2018-12-23T23:52:51.480Z,0.80
2018-12-23T23:55:32.627Z,0.60
2018-12-23T23:58:13.391Z,0.60
